<?xml version="1.0" encoding="UTF-8" standalone="no" ?>
<gpx xmlns="http://www.topografix.com/GPX/1/1" xmlns:xsi="http://www.w3.org/2001/XMLSchema-instance" xsi:schemaLocation="http://www.topografix.com/GPX/1/1 http://www.topografix.com/GPX/1/1/gpx.xsd" version="1.1" creator="VisuGPX - https://www.visugpx.com">
  <metadata>
    <name>12829936-Vélizy et ses étangs 08_04_2021</name>
  </metadata>
  <trk>
    <name><![CDATA[12829936-Vélizy et ses étangs 08_04_2021]]></name>
    <trkseg>
      <trkpt lat="48.79466" lon="2.18689">
        <ele>122</ele>
        <time>2021-04-08T17:59:28Z</time>
      </trkpt>
      <trkpt lat="48.79328" lon="2.1854">
        <ele>141</ele>
        <time>2021-04-08T18:01:44Z</time>
      </trkpt>
      <trkpt lat="48.79248" lon="2.18446">
        <ele>157</ele>
        <time>2021-04-08T18:03:05Z</time>
      </trkpt>
      <trkpt lat="48.79114" lon="2.18295">
        <ele>179</ele>
        <time>2021-04-08T18:05:18Z</time>
      </trkpt>
      <trkpt lat="48.79122" lon="2.18392">
        <ele>177</ele>
        <time>2021-04-08T18:06:10Z</time>
      </trkpt>
      <trkpt lat="48.79078" lon="2.18474">
        <ele>179</ele>
        <time>2021-04-08T18:07:06Z</time>
      </trkpt>
      <trkpt lat="48.7909" lon="2.18592">
        <ele>175</ele>
        <time>2021-04-08T18:08:09Z</time>
      </trkpt>
      <trkpt lat="48.79066" lon="2.18671">
        <ele>173</ele>
        <time>2021-04-08T18:08:54Z</time>
      </trkpt>
      <trkpt lat="48.79008" lon="2.18704">
        <ele>175</ele>
        <time>2021-04-08T18:09:44Z</time>
      </trkpt>
      <trkpt lat="48.7899" lon="2.18741">
        <ele>174</ele>
        <time>2021-04-08T18:10:08Z</time>
      </trkpt>
      <trkpt lat="48.78952" lon="2.18768">
        <ele>175</ele>
        <time>2021-04-08T18:10:42Z</time>
      </trkpt>
      <trkpt lat="48.78928" lon="2.18868">
        <ele>176</ele>
        <time>2021-04-08T18:11:38Z</time>
      </trkpt>
      <trkpt lat="48.78896" lon="2.18938">
        <ele>180</ele>
        <time>2021-04-08T18:12:23Z</time>
      </trkpt>
      <trkpt lat="48.78854" lon="2.19032">
        <ele>182</ele>
        <time>2021-04-08T18:13:23Z</time>
      </trkpt>
      <trkpt lat="48.7883" lon="2.19132">
        <ele>181</ele>
        <time>2021-04-08T18:14:19Z</time>
      </trkpt>
      <trkpt lat="48.78846" lon="2.19254">
        <ele>177</ele>
        <time>2021-04-08T18:15:25Z</time>
      </trkpt>
      <trkpt lat="48.78872" lon="2.19332">
        <ele>173</ele>
        <time>2021-04-08T18:16:11Z</time>
      </trkpt>
      <trkpt lat="48.78832" lon="2.19463">
        <ele>174</ele>
        <time>2021-04-08T18:17:27Z</time>
      </trkpt>
      <trkpt lat="48.78796" lon="2.19566">
        <ele>171</ele>
        <time>2021-04-08T18:18:28Z</time>
      </trkpt>
      <trkpt lat="48.78758" lon="2.19688">
        <ele>168</ele>
        <time>2021-04-08T18:19:40Z</time>
      </trkpt>
      <trkpt lat="48.78716" lon="2.19797">
        <ele>159</ele>
        <time>2021-04-08T18:20:46Z</time>
      </trkpt>
      <trkpt lat="48.78696" lon="2.19782">
        <ele>159</ele>
        <time>2021-04-08T18:21:04Z</time>
      </trkpt>
      <trkpt lat="48.78672" lon="2.19821">
        <ele>156</ele>
        <time>2021-04-08T18:21:32Z</time>
      </trkpt>
      <trkpt lat="48.78632" lon="2.1987">
        <ele>157</ele>
        <time>2021-04-08T18:22:13Z</time>
      </trkpt>
      <trkpt lat="48.78609" lon="2.199">
        <ele>160</ele>
        <time>2021-04-08T18:22:38Z</time>
      </trkpt>
      <trkpt lat="48.78642" lon="2.19991">
        <ele>163</ele>
        <time>2021-04-08T18:23:32Z</time>
      </trkpt>
      <trkpt lat="48.78681" lon="2.20108">
        <ele>156</ele>
        <time>2021-04-08T18:24:42Z</time>
      </trkpt>
      <trkpt lat="48.78717" lon="2.20209">
        <ele>148</ele>
        <time>2021-04-08T18:25:42Z</time>
      </trkpt>
      <trkpt lat="48.78748" lon="2.20287">
        <ele>145</ele>
        <time>2021-04-08T18:26:30Z</time>
      </trkpt>
      <trkpt lat="48.78882" lon="2.20398">
        <ele>146</ele>
        <time>2021-04-08T18:28:33Z</time>
      </trkpt>
      <trkpt lat="48.78999" lon="2.20402">
        <ele>147</ele>
        <time>2021-04-08T18:30:06Z</time>
      </trkpt>
      <trkpt lat="48.79083" lon="2.2042">
        <ele>143</ele>
        <time>2021-04-08T18:31:14Z</time>
      </trkpt>
      <trkpt lat="48.79132" lon="2.20449">
        <ele>142</ele>
        <time>2021-04-08T18:31:56Z</time>
      </trkpt>
      <trkpt lat="48.79101" lon="2.2064">
        <ele>169</ele>
        <time>2021-04-08T18:33:40Z</time>
      </trkpt>
      <trkpt lat="48.79206" lon="2.2064">
        <ele>165</ele>
        <time>2021-04-08T18:35:04Z</time>
      </trkpt>
      <trkpt lat="48.79245" lon="2.20656">
        <ele>168</ele>
        <time>2021-04-08T18:35:36Z</time>
      </trkpt>
      <trkpt lat="48.79257" lon="2.20716">
        <ele>170</ele>
        <time>2021-04-08T18:36:10Z</time>
      </trkpt>
      <trkpt lat="48.79227" lon="2.20828">
        <ele>169</ele>
        <time>2021-04-08T18:37:13Z</time>
      </trkpt>
      <trkpt lat="48.79385" lon="2.20988">
        <ele>175</ele>
        <time>2021-04-08T18:39:45Z</time>
      </trkpt>
      <trkpt lat="48.79384" lon="2.21191">
        <ele>178</ele>
        <time>2021-04-08T18:41:32Z</time>
      </trkpt>
      <trkpt lat="48.79385" lon="2.2145">
        <ele>186</ele>
        <time>2021-04-08T18:43:49Z</time>
      </trkpt>
      <trkpt lat="48.7938" lon="2.21661">
        <ele>180</ele>
        <time>2021-04-08T18:45:40Z</time>
      </trkpt>
      <trkpt lat="48.79384" lon="2.21782">
        <ele>174</ele>
        <time>2021-04-08T18:46:44Z</time>
      </trkpt>
      <trkpt lat="48.79383" lon="2.21818">
        <ele>173</ele>
        <time>2021-04-08T18:47:03Z</time>
      </trkpt>
      <trkpt lat="48.79354" lon="2.21846">
        <ele>174</ele>
        <time>2021-04-08T18:47:31Z</time>
      </trkpt>
      <trkpt lat="48.79376" lon="2.2193">
        <ele>171</ele>
        <time>2021-04-08T18:48:19Z</time>
      </trkpt>
      <trkpt lat="48.79378" lon="2.21956">
        <ele>170</ele>
        <time>2021-04-08T18:48:32Z</time>
      </trkpt>
      <trkpt lat="48.79363" lon="2.21999">
        <ele>170</ele>
        <time>2021-04-08T18:48:58Z</time>
      </trkpt>
      <trkpt lat="48.79338" lon="2.22049">
        <ele>171</ele>
        <time>2021-04-08T18:49:31Z</time>
      </trkpt>
      <trkpt lat="48.79313" lon="2.2208">
        <ele>171</ele>
        <time>2021-04-08T18:49:57Z</time>
      </trkpt>
      <trkpt lat="48.79294" lon="2.22096">
        <ele>172</ele>
        <time>2021-04-08T18:50:14Z</time>
      </trkpt>
      <trkpt lat="48.79267" lon="2.22064">
        <ele>173</ele>
        <time>2021-04-08T18:50:42Z</time>
      </trkpt>
      <trkpt lat="48.79237" lon="2.22075">
        <ele>173</ele>
        <time>2021-04-08T18:51:07Z</time>
      </trkpt>
      <trkpt lat="48.79203" lon="2.22109">
        <ele>173</ele>
        <time>2021-04-08T18:51:39Z</time>
      </trkpt>
      <trkpt lat="48.79176" lon="2.22143">
        <ele>172</ele>
        <time>2021-04-08T18:52:07Z</time>
      </trkpt>
      <trkpt lat="48.79161" lon="2.2217">
        <ele>172</ele>
        <time>2021-04-08T18:52:26Z</time>
      </trkpt>
      <trkpt lat="48.79124" lon="2.22224">
        <ele>172</ele>
        <time>2021-04-08T18:53:07Z</time>
      </trkpt>
      <trkpt lat="48.79124" lon="2.22282">
        <ele>171</ele>
        <time>2021-04-08T18:53:38Z</time>
      </trkpt>
      <trkpt lat="48.79105" lon="2.22344">
        <ele>171</ele>
        <time>2021-04-08T18:54:14Z</time>
      </trkpt>
      <trkpt lat="48.79098" lon="2.22405">
        <ele>170</ele>
        <time>2021-04-08T18:54:46Z</time>
      </trkpt>
      <trkpt lat="48.79064" lon="2.22502">
        <ele>173</ele>
        <time>2021-04-08T18:55:44Z</time>
      </trkpt>
      <trkpt lat="48.7908" lon="2.2252">
        <ele>173</ele>
        <time>2021-04-08T18:56:00Z</time>
      </trkpt>
      <trkpt lat="48.79127" lon="2.22524">
        <ele>170</ele>
        <time>2021-04-08T18:56:38Z</time>
      </trkpt>
      <trkpt lat="48.79219" lon="2.22569">
        <ele>158</ele>
        <time>2021-04-08T18:57:55Z</time>
      </trkpt>
      <trkpt lat="48.79445" lon="2.22652">
        <ele>145</ele>
        <time>2021-04-08T19:01:01Z</time>
      </trkpt>
      <trkpt lat="48.79496" lon="2.22679">
        <ele>140</ele>
        <time>2021-04-08T19:01:45Z</time>
      </trkpt>
      <trkpt lat="48.79552" lon="2.22686">
        <ele>138</ele>
        <time>2021-04-08T19:02:30Z</time>
      </trkpt>
      <trkpt lat="48.79604" lon="2.22719">
        <ele>136</ele>
        <time>2021-04-08T19:03:15Z</time>
      </trkpt>
      <trkpt lat="48.79655" lon="2.2274">
        <ele>132</ele>
        <time>2021-04-08T19:03:57Z</time>
      </trkpt>
      <trkpt lat="48.79644" lon="2.22674">
        <ele>134</ele>
        <time>2021-04-08T19:04:33Z</time>
      </trkpt>
      <trkpt lat="48.79653" lon="2.22589">
        <ele>138</ele>
        <time>2021-04-08T19:05:18Z</time>
      </trkpt>
      <trkpt lat="48.79672" lon="2.22555">
        <ele>139</ele>
        <time>2021-04-08T19:05:42Z</time>
      </trkpt>
      <trkpt lat="48.79681" lon="2.22519">
        <ele>141</ele>
        <time>2021-04-08T19:06:02Z</time>
      </trkpt>
      <trkpt lat="48.79701" lon="2.22488">
        <ele>142</ele>
        <time>2021-04-08T19:06:25Z</time>
      </trkpt>
      <trkpt lat="48.79754" lon="2.22477">
        <ele>142</ele>
        <time>2021-04-08T19:07:08Z</time>
      </trkpt>
      <trkpt lat="48.79771" lon="2.22421">
        <ele>149</ele>
        <time>2021-04-08T19:07:40Z</time>
      </trkpt>
      <trkpt lat="48.7976" lon="2.22362">
        <ele>153</ele>
        <time>2021-04-08T19:08:13Z</time>
      </trkpt>
      <trkpt lat="48.79743" lon="2.22295">
        <ele>159</ele>
        <time>2021-04-08T19:08:51Z</time>
      </trkpt>
      <trkpt lat="48.7972" lon="2.22232">
        <ele>163</ele>
        <time>2021-04-08T19:09:29Z</time>
      </trkpt>
      <trkpt lat="48.7976" lon="2.22205">
        <ele>162</ele>
        <time>2021-04-08T19:10:04Z</time>
      </trkpt>
      <trkpt lat="48.7982" lon="2.22221">
        <ele>165</ele>
        <time>2021-04-08T19:10:52Z</time>
      </trkpt>
      <trkpt lat="48.79837" lon="2.22134">
        <ele>165</ele>
        <time>2021-04-08T19:11:40Z</time>
      </trkpt>
      <trkpt lat="48.79846" lon="2.22064">
        <ele>164</ele>
        <time>2021-04-08T19:12:18Z</time>
      </trkpt>
      <trkpt lat="48.79839" lon="2.21968">
        <ele>164</ele>
        <time>2021-04-08T19:13:09Z</time>
      </trkpt>
      <trkpt lat="48.79839" lon="2.21932">
        <ele>164</ele>
        <time>2021-04-08T19:13:28Z</time>
      </trkpt>
      <trkpt lat="48.79865" lon="2.21894">
        <ele>168</ele>
        <time>2021-04-08T19:13:57Z</time>
      </trkpt>
      <trkpt lat="48.79887" lon="2.21923">
        <ele>171</ele>
        <time>2021-04-08T19:14:20Z</time>
      </trkpt>
      <trkpt lat="48.79897" lon="2.21972">
        <ele>173</ele>
        <time>2021-04-08T19:14:47Z</time>
      </trkpt>
      <trkpt lat="48.79916" lon="2.22031">
        <ele>177</ele>
        <time>2021-04-08T19:15:22Z</time>
      </trkpt>
      <trkpt lat="48.79924" lon="2.22066">
        <ele>177</ele>
        <time>2021-04-08T19:15:41Z</time>
      </trkpt>
      <trkpt lat="48.79915" lon="2.22125">
        <ele>177</ele>
        <time>2021-04-08T19:16:13Z</time>
      </trkpt>
      <trkpt lat="48.79963" lon="2.22251">
        <ele>176</ele>
        <time>2021-04-08T19:17:30Z</time>
      </trkpt>
      <trkpt lat="48.79941" lon="2.22331">
        <ele>176</ele>
        <time>2021-04-08T19:18:16Z</time>
      </trkpt>
      <trkpt lat="48.79911" lon="2.22389">
        <ele>173</ele>
        <time>2021-04-08T19:18:55Z</time>
      </trkpt>
      <trkpt lat="48.79899" lon="2.22421">
        <ele>171</ele>
        <time>2021-04-08T19:19:14Z</time>
      </trkpt>
      <trkpt lat="48.79889" lon="2.22439">
        <ele>168</ele>
        <time>2021-04-08T19:19:27Z</time>
      </trkpt>
      <trkpt lat="48.7987" lon="2.22462">
        <ele>163</ele>
        <time>2021-04-08T19:19:46Z</time>
      </trkpt>
      <trkpt lat="48.7984" lon="2.22482">
        <ele>155</ele>
        <time>2021-04-08T19:20:12Z</time>
      </trkpt>
      <trkpt lat="48.79835" lon="2.22508">
        <ele>153</ele>
        <time>2021-04-08T19:20:26Z</time>
      </trkpt>
      <trkpt lat="48.79806" lon="2.22528">
        <ele>148</ele>
        <time>2021-04-08T19:20:52Z</time>
      </trkpt>
      <trkpt lat="48.79777" lon="2.22536">
        <ele>143</ele>
        <time>2021-04-08T19:21:16Z</time>
      </trkpt>
      <trkpt lat="48.7977" lon="2.22582">
        <ele>140</ele>
        <time>2021-04-08T19:21:40Z</time>
      </trkpt>
      <trkpt lat="48.79771" lon="2.22675">
        <ele>139</ele>
        <time>2021-04-08T19:22:30Z</time>
      </trkpt>
      <trkpt lat="48.79768" lon="2.2272">
        <ele>139</ele>
        <time>2021-04-08T19:22:53Z</time>
      </trkpt>
      <trkpt lat="48.79767" lon="2.22753">
        <ele>139</ele>
        <time>2021-04-08T19:23:11Z</time>
      </trkpt>
      <trkpt lat="48.79752" lon="2.22787">
        <ele>135</ele>
        <time>2021-04-08T19:23:32Z</time>
      </trkpt>
      <trkpt lat="48.79753" lon="2.22826">
        <ele>134</ele>
        <time>2021-04-08T19:23:53Z</time>
      </trkpt>
      <trkpt lat="48.79761" lon="2.22887">
        <ele>135</ele>
        <time>2021-04-08T19:24:26Z</time>
      </trkpt>
      <trkpt lat="48.79771" lon="2.22947">
        <ele>135</ele>
        <time>2021-04-08T19:24:58Z</time>
      </trkpt>
      <trkpt lat="48.79783" lon="2.2301">
        <ele>134</ele>
        <time>2021-04-08T19:25:33Z</time>
      </trkpt>
      <trkpt lat="48.79786" lon="2.23084">
        <ele>128</ele>
        <time>2021-04-08T19:26:12Z</time>
      </trkpt>
      <trkpt lat="48.79744" lon="2.23194">
        <ele>122</ele>
        <time>2021-04-08T19:27:19Z</time>
      </trkpt>
      <trkpt lat="48.79727" lon="2.23215">
        <ele>120</ele>
        <time>2021-04-08T19:27:37Z</time>
      </trkpt>
      <trkpt lat="48.79729" lon="2.23245">
        <ele>118</ele>
        <time>2021-04-08T19:27:53Z</time>
      </trkpt>
      <trkpt lat="48.79703" lon="2.23277">
        <ele>117</ele>
        <time>2021-04-08T19:28:19Z</time>
      </trkpt>
      <trkpt lat="48.79677" lon="2.23307">
        <ele>116</ele>
        <time>2021-04-08T19:28:46Z</time>
      </trkpt>
      <trkpt lat="48.79645" lon="2.2335">
        <ele>115</ele>
        <time>2021-04-08T19:29:20Z</time>
      </trkpt>
      <trkpt lat="48.79607" lon="2.23392">
        <ele>114</ele>
        <time>2021-04-08T19:29:57Z</time>
      </trkpt>
      <trkpt lat="48.79546" lon="2.23464">
        <ele>117</ele>
        <time>2021-04-08T19:30:59Z</time>
      </trkpt>
      <trkpt lat="48.79517" lon="2.23448">
        <ele>119</ele>
        <time>2021-04-08T19:31:24Z</time>
      </trkpt>
      <trkpt lat="48.79504" lon="2.23438">
        <ele>120</ele>
        <time>2021-04-08T19:31:36Z</time>
      </trkpt>
      <trkpt lat="48.79527" lon="2.23263">
        <ele>121</ele>
        <time>2021-04-08T19:33:10Z</time>
      </trkpt>
      <trkpt lat="48.7949" lon="2.23262">
        <ele>121</ele>
        <time>2021-04-08T19:33:39Z</time>
      </trkpt>
      <trkpt lat="48.79449" lon="2.23291">
        <ele>124</ele>
        <time>2021-04-08T19:34:16Z</time>
      </trkpt>
      <trkpt lat="48.79417" lon="2.23335">
        <ele>127</ele>
        <time>2021-04-08T19:34:50Z</time>
      </trkpt>
      <trkpt lat="48.79408" lon="2.23409">
        <ele>124</ele>
        <time>2021-04-08T19:35:30Z</time>
      </trkpt>
      <trkpt lat="48.79379" lon="2.23424">
        <ele>125</ele>
        <time>2021-04-08T19:35:54Z</time>
      </trkpt>
      <trkpt lat="48.79342" lon="2.23442">
        <ele>128</ele>
        <time>2021-04-08T19:36:26Z</time>
      </trkpt>
      <trkpt lat="48.79298" lon="2.23455">
        <ele>131</ele>
        <time>2021-04-08T19:37:01Z</time>
      </trkpt>
      <trkpt lat="48.79356" lon="2.2348">
        <ele>130</ele>
        <time>2021-04-08T19:37:50Z</time>
      </trkpt>
      <trkpt lat="48.793" lon="2.2354">
        <ele>135</ele>
        <time>2021-04-08T19:38:45Z</time>
      </trkpt>
      <trkpt lat="48.79282" lon="2.23629">
        <ele>141</ele>
        <time>2021-04-08T19:39:34Z</time>
      </trkpt>
      <trkpt lat="48.79467" lon="2.23595">
        <ele>128</ele>
        <time>2021-04-08T19:42:03Z</time>
      </trkpt>
      <trkpt lat="48.79484" lon="2.23661">
        <ele>124</ele>
        <time>2021-04-08T19:42:40Z</time>
      </trkpt>
      <trkpt lat="48.79483" lon="2.23714">
        <ele>123</ele>
        <time>2021-04-08T19:43:08Z</time>
      </trkpt>
      <trkpt lat="48.79493" lon="2.2384">
        <ele>122</ele>
        <time>2021-04-08T19:44:15Z</time>
      </trkpt>
      <trkpt lat="48.79465" lon="2.2389">
        <ele>122</ele>
        <time>2021-04-08T19:44:50Z</time>
      </trkpt>
      <trkpt lat="48.79428" lon="2.2391">
        <ele>121</ele>
        <time>2021-04-08T19:45:21Z</time>
      </trkpt>
      <trkpt lat="48.79368" lon="2.23922">
        <ele>126</ele>
        <time>2021-04-08T19:46:10Z</time>
      </trkpt>
      <trkpt lat="48.79329" lon="2.23992">
        <ele>131</ele>
        <time>2021-04-08T19:46:58Z</time>
      </trkpt>
      <trkpt lat="48.79399" lon="2.24006">
        <ele>128</ele>
        <time>2021-04-08T19:47:55Z</time>
      </trkpt>
      <trkpt lat="48.79439" lon="2.24019">
        <ele>127</ele>
        <time>2021-04-08T19:48:27Z</time>
      </trkpt>
      <trkpt lat="48.79472" lon="2.24072">
        <ele>127</ele>
        <time>2021-04-08T19:49:06Z</time>
      </trkpt>
      <trkpt lat="48.79474" lon="2.24134">
        <ele>130</ele>
        <time>2021-04-08T19:49:39Z</time>
      </trkpt>
      <trkpt lat="48.79456" lon="2.24235">
        <ele>135</ele>
        <time>2021-04-08T19:50:34Z</time>
      </trkpt>
      <trkpt lat="48.79463" lon="2.24278">
        <ele>135</ele>
        <time>2021-04-08T19:50:57Z</time>
      </trkpt>
      <trkpt lat="48.79489" lon="2.24319">
        <ele>132</ele>
        <time>2021-04-08T19:51:27Z</time>
      </trkpt>
      <trkpt lat="48.79455" lon="2.2442">
        <ele>133</ele>
        <time>2021-04-08T19:52:27Z</time>
      </trkpt>
      <trkpt lat="48.79426" lon="2.24504">
        <ele>133</ele>
        <time>2021-04-08T19:53:17Z</time>
      </trkpt>
      <trkpt lat="48.79426" lon="2.24523">
        <ele>134</ele>
        <time>2021-04-08T19:53:27Z</time>
      </trkpt>
      <trkpt lat="48.79428" lon="2.24545">
        <ele>136</ele>
        <time>2021-04-08T19:53:39Z</time>
      </trkpt>
      <trkpt lat="48.79463" lon="2.24592">
        <ele>140</ele>
        <time>2021-04-08T19:54:16Z</time>
      </trkpt>
      <trkpt lat="48.79479" lon="2.2463">
        <ele>145</ele>
        <time>2021-04-08T19:54:40Z</time>
      </trkpt>
      <trkpt lat="48.795" lon="2.24678">
        <ele>151</ele>
        <time>2021-04-08T19:55:10Z</time>
      </trkpt>
      <trkpt lat="48.79515" lon="2.24728">
        <ele>157</ele>
        <time>2021-04-08T19:55:39Z</time>
      </trkpt>
      <trkpt lat="48.79534" lon="2.24777">
        <ele>161</ele>
        <time>2021-04-08T19:56:09Z</time>
      </trkpt>
      <trkpt lat="48.79549" lon="2.24836">
        <ele>165</ele>
        <time>2021-04-08T19:56:43Z</time>
      </trkpt>
      <trkpt lat="48.79553" lon="2.24865">
        <ele>167</ele>
        <time>2021-04-08T19:56:58Z</time>
      </trkpt>
      <trkpt lat="48.79566" lon="2.24912">
        <ele>171</ele>
        <time>2021-04-08T19:57:25Z</time>
      </trkpt>
      <trkpt lat="48.79599" lon="2.24912">
        <ele>170</ele>
        <time>2021-04-08T19:57:52Z</time>
      </trkpt>
      <trkpt lat="48.79619" lon="2.24948">
        <ele>171</ele>
        <time>2021-04-08T19:58:16Z</time>
      </trkpt>
      <trkpt lat="48.79653" lon="2.25012">
        <ele>170</ele>
        <time>2021-04-08T19:59:00Z</time>
      </trkpt>
      <trkpt lat="48.79688" lon="2.2508">
        <ele>170</ele>
        <time>2021-04-08T19:59:45Z</time>
      </trkpt>
      <trkpt lat="48.79713" lon="2.25127">
        <ele>170</ele>
        <time>2021-04-08T20:00:17Z</time>
      </trkpt>
      <trkpt lat="48.79787" lon="2.25212">
        <ele>168</ele>
        <time>2021-04-08T20:01:31Z</time>
      </trkpt>
      <trkpt lat="48.79818" lon="2.25248">
        <ele>168</ele>
        <time>2021-04-08T20:02:03Z</time>
      </trkpt>
      <trkpt lat="48.79855" lon="2.2528">
        <ele>168</ele>
        <time>2021-04-08T20:02:37Z</time>
      </trkpt>
      <trkpt lat="48.79896" lon="2.2532">
        <ele>167</ele>
        <time>2021-04-08T20:03:16Z</time>
      </trkpt>
      <trkpt lat="48.79946" lon="2.25323">
        <ele>166</ele>
        <time>2021-04-08T20:03:56Z</time>
      </trkpt>
      <trkpt lat="48.80019" lon="2.25332">
        <ele>165</ele>
        <time>2021-04-08T20:04:55Z</time>
      </trkpt>
      <trkpt lat="48.80081" lon="2.25326">
        <ele>165</ele>
        <time>2021-04-08T20:05:44Z</time>
      </trkpt>
      <trkpt lat="48.80148" lon="2.25389">
        <ele>159</ele>
        <time>2021-04-08T20:06:47Z</time>
      </trkpt>
      <trkpt lat="48.80173" lon="2.25458">
        <ele>157</ele>
        <time>2021-04-08T20:07:29Z</time>
      </trkpt>
      <trkpt lat="48.80192" lon="2.25496">
        <ele>154</ele>
        <time>2021-04-08T20:07:54Z</time>
      </trkpt>
      <trkpt lat="48.80232" lon="2.25539">
        <ele>147</ele>
        <time>2021-04-08T20:08:33Z</time>
      </trkpt>
      <trkpt lat="48.80253" lon="2.25561">
        <ele>143</ele>
        <time>2021-04-08T20:08:54Z</time>
      </trkpt>
      <trkpt lat="48.80286" lon="2.25537">
        <ele>140</ele>
        <time>2021-04-08T20:09:23Z</time>
      </trkpt>
      <trkpt lat="48.80306" lon="2.25525">
        <ele>138</ele>
        <time>2021-04-08T20:09:40Z</time>
      </trkpt>
      <trkpt lat="48.80312" lon="2.25489">
        <ele>138</ele>
        <time>2021-04-08T20:10:00Z</time>
      </trkpt>
      <trkpt lat="48.80348" lon="2.25499">
        <ele>133</ele>
        <time>2021-04-08T20:10:29Z</time>
      </trkpt>
      <trkpt lat="48.80356" lon="2.25543">
        <ele>131</ele>
        <time>2021-04-08T20:10:53Z</time>
      </trkpt>
      <trkpt lat="48.80363" lon="2.2552">
        <ele>130</ele>
        <time>2021-04-08T20:11:07Z</time>
      </trkpt>
      <trkpt lat="48.80377" lon="2.25496">
        <ele>129</ele>
        <time>2021-04-08T20:11:23Z</time>
      </trkpt>
      <trkpt lat="48.80387" lon="2.25477">
        <ele>128</ele>
        <time>2021-04-08T20:11:36Z</time>
      </trkpt>
      <trkpt lat="48.80399" lon="2.25431">
        <ele>129</ele>
        <time>2021-04-08T20:12:02Z</time>
      </trkpt>
      <trkpt lat="48.80425" lon="2.25387">
        <ele>129</ele>
        <time>2021-04-08T20:12:34Z</time>
      </trkpt>
      <trkpt lat="48.80461" lon="2.25318">
        <ele>132</ele>
        <time>2021-04-08T20:13:20Z</time>
      </trkpt>
      <trkpt lat="48.80484" lon="2.25265">
        <ele>135</ele>
        <time>2021-04-08T20:13:53Z</time>
      </trkpt>
      <trkpt lat="48.80508" lon="2.25144">
        <ele>142</ele>
        <time>2021-04-08T20:15:00Z</time>
      </trkpt>
      <trkpt lat="48.80515" lon="2.2507">
        <ele>143</ele>
        <time>2021-04-08T20:15:40Z</time>
      </trkpt>
      <trkpt lat="48.80528" lon="2.24999">
        <ele>141</ele>
        <time>2021-04-08T20:16:18Z</time>
      </trkpt>
      <trkpt lat="48.80487" lon="2.24967">
        <ele>146</ele>
        <time>2021-04-08T20:16:55Z</time>
      </trkpt>
      <trkpt lat="48.80447" lon="2.24917">
        <ele>151</ele>
        <time>2021-04-08T20:17:37Z</time>
      </trkpt>
      <trkpt lat="48.80398" lon="2.24876">
        <ele>158</ele>
        <time>2021-04-08T20:18:22Z</time>
      </trkpt>
      <trkpt lat="48.80362" lon="2.24836">
        <ele>162</ele>
        <time>2021-04-08T20:18:57Z</time>
      </trkpt>
      <trkpt lat="48.80326" lon="2.24791">
        <ele>165</ele>
        <time>2021-04-08T20:19:35Z</time>
      </trkpt>
      <trkpt lat="48.80295" lon="2.24739">
        <ele>166</ele>
        <time>2021-04-08T20:20:12Z</time>
      </trkpt>
      <trkpt lat="48.80272" lon="2.24698">
        <ele>165</ele>
        <time>2021-04-08T20:20:40Z</time>
      </trkpt>
      <trkpt lat="48.80252" lon="2.24627">
        <ele>162</ele>
        <time>2021-04-08T20:21:21Z</time>
      </trkpt>
      <trkpt lat="48.80216" lon="2.24581">
        <ele>163</ele>
        <time>2021-04-08T20:21:58Z</time>
      </trkpt>
      <trkpt lat="48.80166" lon="2.24564">
        <ele>167</ele>
        <time>2021-04-08T20:22:39Z</time>
      </trkpt>
      <trkpt lat="48.80137" lon="2.24556">
        <ele>166</ele>
        <time>2021-04-08T20:23:03Z</time>
      </trkpt>
      <trkpt lat="48.80062" lon="2.24548">
        <ele>166</ele>
        <time>2021-04-08T20:24:03Z</time>
      </trkpt>
      <trkpt lat="48.80086" lon="2.24447">
        <ele>157</ele>
        <time>2021-04-08T20:25:00Z</time>
      </trkpt>
      <trkpt lat="48.80101" lon="2.24333">
        <ele>145</ele>
        <time>2021-04-08T20:26:01Z</time>
      </trkpt>
      <trkpt lat="48.80108" lon="2.24205">
        <ele>129</ele>
        <time>2021-04-08T20:27:09Z</time>
      </trkpt>
      <trkpt lat="48.80151" lon="2.24216">
        <ele>127</ele>
        <time>2021-04-08T20:27:44Z</time>
      </trkpt>
      <trkpt lat="48.80186" lon="2.24204">
        <ele>124</ele>
        <time>2021-04-08T20:28:13Z</time>
      </trkpt>
      <trkpt lat="48.80225" lon="2.24187">
        <ele>120</ele>
        <time>2021-04-08T20:28:45Z</time>
      </trkpt>
      <trkpt lat="48.80265" lon="2.24208">
        <ele>120</ele>
        <time>2021-04-08T20:29:19Z</time>
      </trkpt>
      <trkpt lat="48.8032" lon="2.24224">
        <ele>117</ele>
        <time>2021-04-08T20:30:04Z</time>
      </trkpt>
      <trkpt lat="48.80353" lon="2.24252">
        <ele>116</ele>
        <time>2021-04-08T20:30:34Z</time>
      </trkpt>
      <trkpt lat="48.80395" lon="2.24307">
        <ele>114</ele>
        <time>2021-04-08T20:31:18Z</time>
      </trkpt>
      <trkpt lat="48.80422" lon="2.24259">
        <ele>109</ele>
        <time>2021-04-08T20:31:52Z</time>
      </trkpt>
      <trkpt lat="48.80433" lon="2.24214">
        <ele>105</ele>
        <time>2021-04-08T20:32:17Z</time>
      </trkpt>
      <trkpt lat="48.80468" lon="2.2424">
        <ele>104</ele>
        <time>2021-04-08T20:32:48Z</time>
      </trkpt>
      <trkpt lat="48.80481" lon="2.2426">
        <ele>105</ele>
        <time>2021-04-08T20:33:03Z</time>
      </trkpt>
      <trkpt lat="48.80505" lon="2.24216">
        <ele>99</ele>
        <time>2021-04-08T20:33:33Z</time>
      </trkpt>
      <trkpt lat="48.80525" lon="2.24228">
        <ele>100</ele>
        <time>2021-04-08T20:33:50Z</time>
      </trkpt>
      <trkpt lat="48.80528" lon="2.24271">
        <ele>103</ele>
        <time>2021-04-08T20:34:13Z</time>
      </trkpt>
      <trkpt lat="48.80555" lon="2.24256">
        <ele>102</ele>
        <time>2021-04-08T20:34:36Z</time>
      </trkpt>
      <trkpt lat="48.80578" lon="2.24234">
        <ele>99</ele>
        <time>2021-04-08T20:34:58Z</time>
      </trkpt>
      <trkpt lat="48.806" lon="2.24212">
        <ele>95</ele>
        <time>2021-04-08T20:35:19Z</time>
      </trkpt>
      <trkpt lat="48.8058" lon="2.24184">
        <ele>92</ele>
        <time>2021-04-08T20:35:41Z</time>
      </trkpt>
      <trkpt lat="48.80548" lon="2.24169">
        <ele>92</ele>
        <time>2021-04-08T20:36:08Z</time>
      </trkpt>
      <trkpt lat="48.80537" lon="2.24153">
        <ele>90</ele>
        <time>2021-04-08T20:36:20Z</time>
      </trkpt>
      <trkpt lat="48.80559" lon="2.24132">
        <ele>88</ele>
        <time>2021-04-08T20:36:41Z</time>
      </trkpt>
      <trkpt lat="48.80621" lon="2.24136">
        <ele>85</ele>
        <time>2021-04-08T20:37:30Z</time>
      </trkpt>
      <trkpt lat="48.80628" lon="2.24086">
        <ele>82</ele>
        <time>2021-04-08T20:37:57Z</time>
      </trkpt>
      <trkpt lat="48.80637" lon="2.24013">
        <ele>84</ele>
        <time>2021-04-08T20:38:37Z</time>
      </trkpt>
      <trkpt lat="48.80637" lon="2.2396">
        <ele>90</ele>
        <time>2021-04-08T20:39:04Z</time>
      </trkpt>
      <trkpt lat="48.80652" lon="2.23874">
        <ele>100</ele>
        <time>2021-04-08T20:39:51Z</time>
      </trkpt>
      <trkpt lat="48.80621" lon="2.23835">
        <ele>103</ele>
        <time>2021-04-08T20:40:24Z</time>
      </trkpt>
      <trkpt lat="48.80631" lon="2.23686">
        <ele>111</ele>
        <time>2021-04-08T20:41:43Z</time>
      </trkpt>
      <trkpt lat="48.80658" lon="2.23588">
        <ele>118</ele>
        <time>2021-04-08T20:42:39Z</time>
      </trkpt>
      <trkpt lat="48.80653" lon="2.23558">
        <ele>120</ele>
        <time>2021-04-08T20:42:55Z</time>
      </trkpt>
      <trkpt lat="48.8065" lon="2.23504">
        <ele>123</ele>
        <time>2021-04-08T20:43:24Z</time>
      </trkpt>
      <trkpt lat="48.80641" lon="2.23424">
        <ele>133</ele>
        <time>2021-04-08T20:44:06Z</time>
      </trkpt>
      <trkpt lat="48.80626" lon="2.23419">
        <ele>134</ele>
        <time>2021-04-08T20:44:19Z</time>
      </trkpt>
      <trkpt lat="48.80611" lon="2.2342">
        <ele>135</ele>
        <time>2021-04-08T20:44:31Z</time>
      </trkpt>
      <trkpt lat="48.80599" lon="2.2342">
        <ele>136</ele>
        <time>2021-04-08T20:44:40Z</time>
      </trkpt>
      <trkpt lat="48.80585" lon="2.23406">
        <ele>138</ele>
        <time>2021-04-08T20:44:54Z</time>
      </trkpt>
      <trkpt lat="48.80579" lon="2.23374">
        <ele>141</ele>
        <time>2021-04-08T20:45:11Z</time>
      </trkpt>
      <trkpt lat="48.80626" lon="2.23353">
        <ele>143</ele>
        <time>2021-04-08T20:45:50Z</time>
      </trkpt>
      <trkpt lat="48.80679" lon="2.23341">
        <ele>143</ele>
        <time>2021-04-08T20:46:33Z</time>
      </trkpt>
      <trkpt lat="48.80665" lon="2.23324">
        <ele>146</ele>
        <time>2021-04-08T20:46:48Z</time>
      </trkpt>
      <trkpt lat="48.80722" lon="2.23309">
        <ele>143</ele>
        <time>2021-04-08T20:47:34Z</time>
      </trkpt>
      <trkpt lat="48.80806" lon="2.23294">
        <ele>141</ele>
        <time>2021-04-08T20:48:42Z</time>
      </trkpt>
      <trkpt lat="48.80919" lon="2.23258">
        <ele>142</ele>
        <time>2021-04-08T20:50:14Z</time>
      </trkpt>
      <trkpt lat="48.80918" lon="2.23188">
        <ele>147</ele>
        <time>2021-04-08T20:50:51Z</time>
      </trkpt>
      <trkpt lat="48.80945" lon="2.23174">
        <ele>147</ele>
        <time>2021-04-08T20:51:14Z</time>
      </trkpt>
      <trkpt lat="48.81007" lon="2.23166">
        <ele>146</ele>
        <time>2021-04-08T20:52:04Z</time>
      </trkpt>
      <trkpt lat="48.81055" lon="2.23158">
        <ele>145</ele>
        <time>2021-04-08T20:52:42Z</time>
      </trkpt>
      <trkpt lat="48.81055" lon="2.23129">
        <ele>146</ele>
        <time>2021-04-08T20:52:58Z</time>
      </trkpt>
      <trkpt lat="48.81163" lon="2.23102">
        <ele>141</ele>
        <time>2021-04-08T20:54:25Z</time>
      </trkpt>
      <trkpt lat="48.81157" lon="2.23058">
        <ele>145</ele>
        <time>2021-04-08T20:54:49Z</time>
      </trkpt>
      <trkpt lat="48.81189" lon="2.2302">
        <ele>146</ele>
        <time>2021-04-08T20:55:22Z</time>
      </trkpt>
      <trkpt lat="48.81148" lon="2.23019">
        <ele>149</ele>
        <time>2021-04-08T20:55:54Z</time>
      </trkpt>
      <trkpt lat="48.81104" lon="2.23023">
        <ele>151</ele>
        <time>2021-04-08T20:56:30Z</time>
      </trkpt>
      <trkpt lat="48.81039" lon="2.2303">
        <ele>154</ele>
        <time>2021-04-08T20:57:22Z</time>
      </trkpt>
      <trkpt lat="48.81021" lon="2.22945">
        <ele>160</ele>
        <time>2021-04-08T20:58:09Z</time>
      </trkpt>
      <trkpt lat="48.81013" lon="2.22836">
        <ele>164</ele>
        <time>2021-04-08T20:59:07Z</time>
      </trkpt>
      <trkpt lat="48.81007" lon="2.22776">
        <ele>166</ele>
        <time>2021-04-08T20:59:39Z</time>
      </trkpt>
      <trkpt lat="48.80997" lon="2.22694">
        <ele>170</ele>
        <time>2021-04-08T21:00:23Z</time>
      </trkpt>
      <trkpt lat="48.80985" lon="2.2254">
        <ele>174</ele>
        <time>2021-04-08T21:01:45Z</time>
      </trkpt>
      <trkpt lat="48.81033" lon="2.22458">
        <ele>174</ele>
        <time>2021-04-08T21:02:42Z</time>
      </trkpt>
      <trkpt lat="48.81114" lon="2.22327">
        <ele>171</ele>
        <time>2021-04-08T21:04:17Z</time>
      </trkpt>
      <trkpt lat="48.81206" lon="2.22178">
        <ele>157</ele>
        <time>2021-04-08T21:06:05Z</time>
      </trkpt>
      <trkpt lat="48.81322" lon="2.22152">
        <ele>144</ele>
        <time>2021-04-08T21:07:39Z</time>
      </trkpt>
      <trkpt lat="48.81387" lon="2.22146">
        <ele>138</ele>
        <time>2021-04-08T21:08:31Z</time>
      </trkpt>
      <trkpt lat="48.81442" lon="2.22163">
        <ele>134</ele>
        <time>2021-04-08T21:09:16Z</time>
      </trkpt>
      <trkpt lat="48.81469" lon="2.22186">
        <ele>132</ele>
        <time>2021-04-08T21:09:41Z</time>
      </trkpt>
      <trkpt lat="48.81517" lon="2.2219">
        <ele>128</ele>
        <time>2021-04-08T21:10:19Z</time>
      </trkpt>
      <trkpt lat="48.81517" lon="2.22158">
        <ele>128</ele>
        <time>2021-04-08T21:10:36Z</time>
      </trkpt>
      <trkpt lat="48.81538" lon="2.22155">
        <ele>126</ele>
        <time>2021-04-08T21:10:53Z</time>
      </trkpt>
      <trkpt lat="48.81523" lon="2.22056">
        <ele>130</ele>
        <time>2021-04-08T21:11:46Z</time>
      </trkpt>
      <trkpt lat="48.81549" lon="2.22038">
        <ele>131</ele>
        <time>2021-04-08T21:12:09Z</time>
      </trkpt>
      <trkpt lat="48.81572" lon="2.22018">
        <ele>132</ele>
        <time>2021-04-08T21:12:30Z</time>
      </trkpt>
      <trkpt lat="48.81538" lon="2.21976">
        <ele>137</ele>
        <time>2021-04-08T21:13:06Z</time>
      </trkpt>
      <trkpt lat="48.81509" lon="2.2193">
        <ele>142</ele>
        <time>2021-04-08T21:13:39Z</time>
      </trkpt>
      <trkpt lat="48.81471" lon="2.21901">
        <ele>146</ele>
        <time>2021-04-08T21:14:13Z</time>
      </trkpt>
      <trkpt lat="48.81489" lon="2.21836">
        <ele>148</ele>
        <time>2021-04-08T21:14:50Z</time>
      </trkpt>
      <trkpt lat="48.8153" lon="2.21838">
        <ele>147</ele>
        <time>2021-04-08T21:15:23Z</time>
      </trkpt>
      <trkpt lat="48.8154" lon="2.21784">
        <ele>150</ele>
        <time>2021-04-08T21:15:53Z</time>
      </trkpt>
      <trkpt lat="48.81577" lon="2.21757">
        <ele>152</ele>
        <time>2021-04-08T21:16:26Z</time>
      </trkpt>
      <trkpt lat="48.8166" lon="2.2175">
        <ele>147</ele>
        <time>2021-04-08T21:17:32Z</time>
      </trkpt>
      <trkpt lat="48.81659" lon="2.21629">
        <ele>147</ele>
        <time>2021-04-08T21:18:36Z</time>
      </trkpt>
      <trkpt lat="48.81689" lon="2.21526">
        <ele>141</ele>
        <time>2021-04-08T21:19:35Z</time>
      </trkpt>
      <trkpt lat="48.8165" lon="2.21503">
        <ele>146</ele>
        <time>2021-04-08T21:20:09Z</time>
      </trkpt>
      <trkpt lat="48.81665" lon="2.20988">
        <ele>148</ele>
        <time>2021-04-08T21:24:41Z</time>
      </trkpt>
      <trkpt lat="48.81617" lon="2.20972">
        <ele>152</ele>
        <time>2021-04-08T21:25:20Z</time>
      </trkpt>
      <trkpt lat="48.81571" lon="2.20922">
        <ele>155</ele>
        <time>2021-04-08T21:26:05Z</time>
      </trkpt>
      <trkpt lat="48.81533" lon="2.20857">
        <ele>160</ele>
        <time>2021-04-08T21:26:51Z</time>
      </trkpt>
      <trkpt lat="48.81493" lon="2.20786">
        <ele>163</ele>
        <time>2021-04-08T21:27:40Z</time>
      </trkpt>
      <trkpt lat="48.81459" lon="2.20712">
        <ele>165</ele>
        <time>2021-04-08T21:28:28Z</time>
      </trkpt>
      <trkpt lat="48.81421" lon="2.20702">
        <ele>165</ele>
        <time>2021-04-08T21:28:59Z</time>
      </trkpt>
      <trkpt lat="48.81384" lon="2.20635">
        <ele>168</ele>
        <time>2021-04-08T21:29:45Z</time>
      </trkpt>
      <trkpt lat="48.81346" lon="2.2051">
        <ele>171</ele>
        <time>2021-04-08T21:30:58Z</time>
      </trkpt>
      <trkpt lat="48.81294" lon="2.20326">
        <ele>167</ele>
        <time>2021-04-08T21:32:43Z</time>
      </trkpt>
      <trkpt lat="48.81226" lon="2.20113">
        <ele>163</ele>
        <time>2021-04-08T21:34:48Z</time>
      </trkpt>
      <trkpt lat="48.81155" lon="2.20088">
        <ele>170</ele>
        <time>2021-04-08T21:35:46Z</time>
      </trkpt>
      <trkpt lat="48.8106" lon="2.20052">
        <ele>169</ele>
        <time>2021-04-08T21:37:05Z</time>
      </trkpt>
      <trkpt lat="48.81011" lon="2.20041">
        <ele>166</ele>
        <time>2021-04-08T21:37:44Z</time>
      </trkpt>
      <trkpt lat="48.80943" lon="2.19996">
        <ele>154</ele>
        <time>2021-04-08T21:38:44Z</time>
      </trkpt>
      <trkpt lat="48.80942" lon="2.19926">
        <ele>148</ele>
        <time>2021-04-08T21:39:21Z</time>
      </trkpt>
      <trkpt lat="48.8096" lon="2.19853">
        <ele>144</ele>
        <time>2021-04-08T21:40:02Z</time>
      </trkpt>
      <trkpt lat="48.80927" lon="2.19783">
        <ele>132</ele>
        <time>2021-04-08T21:40:47Z</time>
      </trkpt>
      <trkpt lat="48.80902" lon="2.19697">
        <ele>121</ele>
        <time>2021-04-08T21:41:37Z</time>
      </trkpt>
      <trkpt lat="48.80859" lon="2.19574">
        <ele>114</ele>
        <time>2021-04-08T21:42:50Z</time>
      </trkpt>
      <trkpt lat="48.80612" lon="2.19536">
        <ele>139</ele>
        <time>2021-04-08T21:46:09Z</time>
      </trkpt>
      <trkpt lat="48.8059" lon="2.19484">
        <ele>140</ele>
        <time>2021-04-08T21:46:42Z</time>
      </trkpt>
      <trkpt lat="48.80571" lon="2.1944">
        <ele>140</ele>
        <time>2021-04-08T21:47:09Z</time>
      </trkpt>
      <trkpt lat="48.80557" lon="2.19413">
        <ele>140</ele>
        <time>2021-04-08T21:47:27Z</time>
      </trkpt>
      <trkpt lat="48.80536" lon="2.19363">
        <ele>139</ele>
        <time>2021-04-08T21:47:59Z</time>
      </trkpt>
      <trkpt lat="48.80534" lon="2.19429">
        <ele>140</ele>
        <time>2021-04-08T21:48:34Z</time>
      </trkpt>
      <trkpt lat="48.80518" lon="2.19411">
        <ele>140</ele>
        <time>2021-04-08T21:48:49Z</time>
      </trkpt>
      <trkpt lat="48.80443" lon="2.19444">
        <ele>142</ele>
        <time>2021-04-08T21:49:52Z</time>
      </trkpt>
      <trkpt lat="48.80416" lon="2.1939">
        <ele>143</ele>
        <time>2021-04-08T21:50:28Z</time>
      </trkpt>
      <trkpt lat="48.80388" lon="2.19374">
        <ele>142</ele>
        <time>2021-04-08T21:50:52Z</time>
      </trkpt>
      <trkpt lat="48.80356" lon="2.19271">
        <ele>140</ele>
        <time>2021-04-08T21:51:52Z</time>
      </trkpt>
      <trkpt lat="48.80303" lon="2.19135">
        <ele>132</ele>
        <time>2021-04-08T21:53:15Z</time>
      </trkpt>
      <trkpt lat="48.80342" lon="2.19076">
        <ele>126</ele>
        <time>2021-04-08T21:53:59Z</time>
      </trkpt>
      <trkpt lat="48.80354" lon="2.19014">
        <ele>122</ele>
        <time>2021-04-08T21:54:33Z</time>
      </trkpt>
      <trkpt lat="48.8033" lon="2.19045">
        <ele>124</ele>
        <time>2021-04-08T21:54:58Z</time>
      </trkpt>
      <trkpt lat="48.80309" lon="2.19032">
        <ele>123</ele>
        <time>2021-04-08T21:55:17Z</time>
      </trkpt>
      <trkpt lat="48.8026" lon="2.1893">
        <ele>111</ele>
        <time>2021-04-08T21:56:23Z</time>
      </trkpt>
      <trkpt lat="48.80203" lon="2.18847">
        <ele>104</ele>
        <time>2021-04-08T21:57:26Z</time>
      </trkpt>
      <trkpt lat="48.80153" lon="2.18803">
        <ele>100</ele>
        <time>2021-04-08T21:58:13Z</time>
      </trkpt>
      <trkpt lat="48.80095" lon="2.18726">
        <ele>98</ele>
        <time>2021-04-08T21:59:14Z</time>
      </trkpt>
      <trkpt lat="48.8006" lon="2.1872">
        <ele>98</ele>
        <time>2021-04-08T21:59:43Z</time>
      </trkpt>
      <trkpt lat="48.80058" lon="2.188">
        <ele>99</ele>
        <time>2021-04-08T22:00:25Z</time>
      </trkpt>
      <trkpt lat="48.80054" lon="2.18899">
        <ele>104</ele>
        <time>2021-04-08T22:01:17Z</time>
      </trkpt>
      <trkpt lat="48.80086" lon="2.1889">
        <ele>106</ele>
        <time>2021-04-08T22:01:43Z</time>
      </trkpt>
      <trkpt lat="48.80051" lon="2.18924">
        <ele>105</ele>
        <time>2021-04-08T22:02:16Z</time>
      </trkpt>
      <trkpt lat="48.80026" lon="2.18977">
        <ele>106</ele>
        <time>2021-04-08T22:02:51Z</time>
      </trkpt>
      <trkpt lat="48.80012" lon="2.19143">
        <ele>109</ele>
        <time>2021-04-08T22:04:19Z</time>
      </trkpt>
      <trkpt lat="48.7999" lon="2.19265">
        <ele>110</ele>
        <time>2021-04-08T22:05:26Z</time>
      </trkpt>
      <trkpt lat="48.79985" lon="2.1931">
        <ele>111</ele>
        <time>2021-04-08T22:05:50Z</time>
      </trkpt>
      <trkpt lat="48.80046" lon="2.19323">
        <ele>120</ele>
        <time>2021-04-08T22:06:39Z</time>
      </trkpt>
      <trkpt lat="48.80128" lon="2.19372">
        <ele>129</ele>
        <time>2021-04-08T22:07:50Z</time>
      </trkpt>
      <trkpt lat="48.80113" lon="2.19476">
        <ele>130</ele>
        <time>2021-04-08T22:08:46Z</time>
      </trkpt>
      <trkpt lat="48.80095" lon="2.19509">
        <ele>128</ele>
        <time>2021-04-08T22:09:09Z</time>
      </trkpt>
      <trkpt lat="48.80113" lon="2.19644">
        <ele>128</ele>
        <time>2021-04-08T22:10:21Z</time>
      </trkpt>
      <trkpt lat="48.79888" lon="2.19826">
        <ele>117</ele>
        <time>2021-04-08T22:13:45Z</time>
      </trkpt>
      <trkpt lat="48.79845" lon="2.19841">
        <ele>117</ele>
        <time>2021-04-08T22:14:21Z</time>
      </trkpt>
      <trkpt lat="48.7982" lon="2.19823">
        <ele>116</ele>
        <time>2021-04-08T22:14:43Z</time>
      </trkpt>
      <trkpt lat="48.79817" lon="2.19864">
        <ele>119</ele>
        <time>2021-04-08T22:15:05Z</time>
      </trkpt>
      <trkpt lat="48.79761" lon="2.19917">
        <ele>121</ele>
        <time>2021-04-08T22:15:57Z</time>
      </trkpt>
      <trkpt lat="48.79724" lon="2.19927">
        <ele>121</ele>
        <time>2021-04-08T22:16:27Z</time>
      </trkpt>
      <trkpt lat="48.79682" lon="2.19947">
        <ele>120</ele>
        <time>2021-04-08T22:17:03Z</time>
      </trkpt>
      <trkpt lat="48.79651" lon="2.19868">
        <ele>117</ele>
        <time>2021-04-08T22:17:51Z</time>
      </trkpt>
      <trkpt lat="48.79621" lon="2.19796">
        <ele>117</ele>
        <time>2021-04-08T22:18:36Z</time>
      </trkpt>
      <trkpt lat="48.79592" lon="2.19738">
        <ele>118</ele>
        <time>2021-04-08T22:19:15Z</time>
      </trkpt>
      <trkpt lat="48.79544" lon="2.1966">
        <ele>122</ele>
        <time>2021-04-08T22:20:11Z</time>
      </trkpt>
      <trkpt lat="48.79568" lon="2.19613">
        <ele>121</ele>
        <time>2021-04-08T22:20:42Z</time>
      </trkpt>
      <trkpt lat="48.79543" lon="2.19558">
        <ele>123</ele>
        <time>2021-04-08T22:21:17Z</time>
      </trkpt>
      <trkpt lat="48.79491" lon="2.19697">
        <ele>127</ele>
        <time>2021-04-08T22:22:42Z</time>
      </trkpt>
      <trkpt lat="48.79309" lon="2.19604">
        <ele>137</ele>
        <time>2021-04-08T22:25:16Z</time>
      </trkpt>
      <trkpt lat="48.79366" lon="2.195">
        <ele>130</ele>
        <time>2021-04-08T22:26:27Z</time>
      </trkpt>
      <trkpt lat="48.79518" lon="2.19305">
        <ele>124</ele>
        <time>2021-04-08T22:29:06Z</time>
      </trkpt>
      <trkpt lat="48.79629" lon="2.19153">
        <ele>127</ele>
        <time>2021-04-08T22:31:06Z</time>
      </trkpt>
      <trkpt lat="48.79404" lon="2.18995">
        <ele>134</ele>
        <time>2021-04-08T22:34:24Z</time>
      </trkpt>
      <trkpt lat="48.79461" lon="2.18706">
        <ele>121</ele>
        <time>2021-04-08T22:37:04Z</time>
      </trkpt>
    </trkseg>
  </trk>
</gpx>